createdAt,value
2018-09-17T00:00:58.424Z,12.70
2018-09-17T00:01:58.601Z,12.73
2018-09-17T00:02:58.781Z,12.76
2018-09-17T00:03:58.968Z,12.65
2018-09-17T00:04:59.143Z,12.68
2018-09-17T00:07:59.662Z,12.67
2018-09-17T00:08:59.849Z,12.70
2018-09-17T00:10:00.031Z,12.60
2018-09-17T00:11:00.205Z,12.49
2018-09-17T00:12:00.385Z,12.62
2018-09-17T00:13:00.565Z,12.55
2018-09-17T00:14:00.746Z,12.57
2018-09-17T00:15:00.923Z,12.67
2018-09-17T00:16:01.095Z,12.62
2018-09-17T00:17:01.271Z,12.67
2018-09-17T00:18:01.444Z,12.62
2018-09-17T00:19:01.668Z,12.61
2018-09-17T00:20:01.800Z,12.67
2018-09-17T00:21:01.985Z,12.68
2018-09-17T00:22:02.159Z,12.60
2018-09-17T00:23:02.337Z,12.67
2018-09-17T00:24:02.514Z,12.61
2018-09-17T00:25:02.691Z,12.65
2018-09-17T00:26:02.870Z,12.62
2018-09-17T00:27:03.036Z,12.76
2018-09-17T00:28:03.219Z,12.65
2018-09-17T00:29:03.398Z,12.49
2018-09-17T00:30:03.585Z,12.39
2018-09-17T00:31:03.748Z,12.31
2018-09-17T00:32:03.927Z,12.24
2018-09-17T00:33:04.105Z,12.27
2018-09-17T00:34:04.282Z,12.15
2018-09-17T00:35:04.459Z,12.25
2018-09-17T00:36:04.643Z,12.27
2018-09-17T00:37:05.398Z,12.35
2018-09-17T00:39:05.130Z,12.25
2018-09-17T00:40:05.313Z,12.27
2018-09-17T00:41:05.491Z,12.39
2018-09-17T00:42:05.669Z,12.36
2018-09-17T00:43:05.859Z,12.39
2018-09-17T00:44:06.020Z,12.43
2018-09-17T00:45:06.196Z,12.37
2018-09-17T00:46:06.375Z,12.25
2018-09-17T00:47:06.559Z,12.29
2018-09-17T00:48:06.737Z,12.29
2018-09-17T00:49:06.911Z,12.40
2018-09-17T00:50:07.083Z,12.42
2018-09-17T00:51:07.262Z,12.47
2018-09-17T00:52:07.440Z,12.46
2018-09-17T00:53:07.619Z,12.43
2018-09-17T00:54:07.796Z,12.40
2018-09-17T00:55:07.974Z,12.39
2018-09-17T00:56:08.150Z,12.28
2018-09-17T00:57:08.330Z,12.28
2018-09-17T00:58:08.507Z,12.35
2018-09-17T00:59:08.687Z,12.27
2018-09-17T01:00:08.866Z,12.25
2018-09-17T01:01:09.038Z,12.29
2018-09-17T01:02:09.218Z,12.25
2018-09-17T01:03:09.397Z,12.25
2018-09-17T01:04:09.582Z,12.22
2018-09-17T01:05:09.763Z,12.28
2018-09-17T01:06:09.943Z,12.24
2018-09-17T01:07:10.117Z,12.25
2018-09-17T01:08:10.288Z,12.25
2018-09-17T01:09:10.471Z,12.21
2018-09-17T01:10:10.665Z,12.27
2018-09-17T01:11:10.836Z,12.09
2018-09-17T01:12:11.010Z,12.18
2018-09-17T01:13:11.188Z,12.18
2018-09-17T01:14:11.372Z,12.07
2018-09-17T01:15:11.541Z,12.06
2018-09-17T01:16:11.718Z,12.04
2018-09-17T01:17:11.897Z,12.04
2018-09-17T01:18:12.077Z,12.04
2018-09-17T01:19:12.254Z,12.03
2018-09-17T01:20:12.432Z,12.07
2018-09-17T01:21:12.609Z,12.04
2018-09-17T01:22:12.786Z,11.97
2018-09-17T01:23:12.971Z,11.90
2018-09-17T01:24:13.146Z,11.91
2018-09-17T01:25:13.313Z,11.84
2018-09-17T01:26:13.495Z,11.91
2018-09-17T01:27:13.670Z,11.80
2018-09-17T01:28:13.851Z,11.43
2018-09-17T01:29:14.032Z,11.54
2018-09-17T01:30:14.201Z,11.48
2018-09-17T01:31:14.379Z,11.51
2018-09-17T01:32:14.566Z,11.51
2018-09-17T01:33:14.737Z,11.43
2018-09-17T01:34:14.907Z,11.47
2018-09-17T01:35:15.082Z,11.35
2018-09-17T01:36:15.257Z,11.43
2018-09-17T01:37:15.436Z,11.35
2018-09-17T01:38:15.614Z,11.35
2018-09-17T01:39:15.798Z,11.32
2018-09-17T01:40:15.977Z,11.36
2018-09-17T01:41:16.153Z,11.35
2018-09-17T01:42:16.335Z,11.40
2018-09-17T01:43:16.518Z,11.36
2018-09-17T01:44:16.699Z,11.41
2018-09-17T01:45:16.871Z,11.51
2018-09-17T01:46:17.102Z,11.44
2018-09-17T01:47:17.224Z,11.52
2018-09-17T01:48:17.405Z,11.59
2018-09-17T01:49:17.572Z,11.59
2018-09-17T01:50:17.754Z,11.65
2018-09-17T01:51:17.935Z,11.69
2018-09-17T01:52:18.106Z,11.45
2018-09-17T01:53:18.285Z,11.50
2018-09-17T01:54:18.464Z,11.45
2018-09-17T01:55:18.641Z,11.41
2018-09-17T01:56:18.818Z,11.43
2018-09-17T01:57:19.000Z,11.51
2018-09-17T01:58:19.173Z,11.47
2018-09-17T01:59:19.351Z,11.43
2018-09-17T02:00:19.534Z,11.45
2018-09-17T02:01:19.707Z,11.29
2018-09-17T02:02:19.884Z,11.41
2018-09-17T02:03:20.065Z,11.37
2018-09-17T02:04:20.244Z,11.17
2018-09-17T02:05:20.425Z,11.26
2018-09-17T02:06:20.615Z,11.19
2018-09-17T02:07:20.790Z,11.17
2018-09-17T02:08:20.966Z,11.25
2018-09-17T02:09:21.143Z,11.22
2018-09-17T02:10:21.332Z,11.23
2018-09-17T02:11:21.502Z,11.22
2018-09-17T02:12:21.681Z,11.27
2018-09-17T02:13:21.860Z,11.23
2018-09-17T02:14:22.036Z,11.33
2018-09-17T02:15:22.211Z,11.32
2018-09-17T02:16:22.381Z,11.32
2018-09-17T02:17:22.567Z,11.27
2018-09-17T02:18:22.749Z,11.30
2018-09-17T02:19:22.922Z,11.27
2018-09-17T02:20:23.102Z,11.32
2018-09-17T02:21:23.286Z,11.36
2018-09-17T02:22:23.459Z,11.36
2018-09-17T02:23:23.631Z,11.37
2018-09-17T02:24:23.810Z,11.30
2018-09-17T02:25:23.989Z,11.27
2018-09-17T02:26:24.172Z,11.19
2018-09-17T02:27:24.354Z,11.22
2018-09-17T02:28:24.522Z,11.12
2018-09-17T02:29:24.699Z,11.22
2018-09-17T02:30:24.879Z,11.05
2018-09-17T02:31:25.064Z,11.02
2018-09-17T02:32:25.226Z,11.00
2018-09-17T02:33:25.403Z,10.90
2018-09-17T02:34:25.581Z,10.94
2018-09-17T02:35:25.760Z,10.75
2018-09-17T02:36:25.942Z,10.74
2018-09-17T02:37:26.108Z,10.72
2018-09-17T02:38:26.292Z,10.82
2018-09-17T02:39:26.462Z,10.67
2018-09-17T02:40:26.644Z,10.69
2018-09-17T02:41:26.826Z,10.76
2018-09-17T02:42:27.008Z,10.74
2018-09-17T02:43:27.186Z,10.69
2018-09-17T02:44:27.363Z,10.71
2018-09-17T02:45:27.541Z,10.81
2018-09-17T02:46:27.709Z,10.67
2018-09-17T02:47:27.887Z,10.54
2018-09-17T02:48:28.065Z,10.48
2018-09-17T02:49:28.252Z,10.38
2018-09-17T02:50:28.417Z,10.23
2018-09-17T02:51:28.605Z,10.26
2018-09-17T02:52:28.786Z,10.26
2018-09-17T02:53:29.005Z,10.33
2018-09-17T02:54:29.139Z,10.37
2018-09-17T02:55:29.308Z,10.37
2018-09-17T02:56:29.495Z,10.35
2018-09-17T02:57:29.672Z,10.40
2018-09-17T02:58:29.852Z,10.49
2018-09-17T02:59:30.042Z,10.42
2018-09-17T03:00:30.206Z,10.46
2018-09-17T03:01:30.381Z,10.44
2018-09-17T03:02:30.562Z,10.48
2018-09-17T03:03:30.728Z,10.42
2018-09-17T03:04:30.907Z,10.33
2018-09-17T03:05:31.090Z,10.34
2018-09-17T03:06:31.280Z,10.22
2018-09-17T03:07:32.364Z,10.31
2018-09-17T03:08:31.624Z,10.33
2018-09-17T03:09:31.798Z,10.26
2018-09-17T03:10:31.967Z,10.38
2018-09-17T03:11:32.151Z,10.44
2018-09-17T03:12:32.320Z,10.44
2018-09-17T03:13:32.500Z,10.46
2018-09-17T03:14:32.669Z,10.53
2018-09-17T03:15:32.847Z,10.46
2018-09-17T03:16:33.022Z,10.59
2018-09-17T03:17:33.205Z,10.49
2018-09-17T03:18:33.390Z,10.61
2018-09-17T03:19:33.552Z,10.63
2018-09-17T03:20:33.727Z,10.63
2018-09-17T03:21:33.907Z,10.71
2018-09-17T03:22:34.084Z,10.74
2018-09-17T03:23:34.279Z,10.71
2018-09-17T03:24:34.462Z,10.82
2018-09-17T03:25:34.634Z,10.79
2018-09-17T03:26:34.812Z,10.69
2018-09-17T03:27:34.993Z,10.71
2018-09-17T03:28:35.178Z,10.78
2018-09-17T03:29:35.344Z,10.86
2018-09-17T03:30:35.521Z,10.79
2018-09-17T03:31:35.698Z,10.84
2018-09-17T03:32:35.880Z,10.76
2018-09-17T03:33:36.046Z,10.71
2018-09-17T03:34:36.232Z,10.61
2018-09-17T03:35:36.399Z,10.48
2018-09-17T03:36:36.589Z,10.41
2018-09-17T03:37:36.762Z,10.35
2018-09-17T03:38:36.943Z,10.46
2018-09-17T03:39:37.117Z,10.35
2018-09-17T03:40:37.291Z,10.41
2018-09-17T03:41:37.464Z,10.42
2018-09-17T03:42:37.638Z,10.40
2018-09-17T03:43:37.829Z,10.26
2018-09-17T03:44:37.982Z,10.16
2018-09-17T03:45:38.162Z,10.02
2018-09-17T03:46:38.425Z,10.15
2018-09-17T03:47:38.520Z,10.22
2018-09-17T03:48:38.683Z,10.28
2018-09-17T03:49:38.863Z,10.28
2018-09-17T03:50:39.045Z,10.37
2018-09-17T03:51:39.225Z,10.31
2018-09-17T03:52:39.400Z,10.38
2018-09-17T03:53:39.576Z,10.42
2018-09-17T03:54:39.754Z,10.48
2018-09-17T03:55:39.930Z,10.44
2018-09-17T03:56:40.113Z,10.42
2018-09-17T03:57:40.288Z,10.42
2018-09-17T03:58:40.472Z,10.33
2018-09-17T03:59:40.649Z,10.42
2018-09-17T04:00:40.827Z,10.31
2018-09-17T04:01:40.997Z,10.25
2018-09-17T04:02:41.176Z,10.15
2018-09-17T04:03:41.354Z,9.86
2018-09-17T04:04:41.529Z,9.82
2018-09-17T04:05:41.708Z,9.86
2018-09-17T04:06:41.884Z,9.83
2018-09-17T04:07:42.075Z,9.77
2018-09-17T04:08:42.238Z,9.82
2018-09-17T04:09:42.417Z,9.83
2018-09-17T04:10:42.607Z,9.76
2018-09-17T04:11:42.780Z,9.79
2018-09-17T04:12:42.957Z,9.86
2018-09-17T04:13:43.140Z,9.95
2018-09-17T04:14:43.315Z,9.94
2018-09-17T04:15:43.487Z,9.99
2018-09-17T04:16:43.674Z,10.02
2018-09-17T04:17:43.845Z,10.12
2018-09-17T04:18:44.023Z,10.13
2018-09-17T04:19:44.361Z,10.07
2018-09-17T04:20:44.403Z,10.04
2018-09-17T04:21:44.591Z,9.97
2018-09-17T04:22:44.779Z,9.82
2018-09-17T04:23:44.945Z,9.65
2018-09-17T04:24:45.122Z,9.68
2018-09-17T04:25:45.298Z,9.84
2018-09-17T04:26:45.479Z,9.91
2018-09-17T04:27:45.654Z,9.94
2018-09-17T04:28:45.830Z,9.97
2018-09-17T04:29:46.011Z,9.95
2018-09-17T04:30:46.184Z,9.99
2018-09-17T04:31:46.365Z,10.02
2018-09-17T04:32:46.541Z,10.05
2018-09-17T04:33:46.716Z,10.04
2018-09-17T04:34:46.904Z,10.12
2018-09-17T04:35:47.071Z,10.09
2018-09-17T04:36:47.255Z,10.02
2018-09-17T04:37:47.438Z,10.04
2018-09-17T04:38:47.601Z,9.99
2018-09-17T04:39:47.785Z,9.92
2018-09-17T04:40:47.945Z,10.01
2018-09-17T04:41:48.127Z,9.99
2018-09-17T04:42:48.317Z,9.83
2018-09-17T04:43:48.492Z,9.94
2018-09-17T04:44:48.673Z,9.86
2018-09-17T04:45:48.893Z,9.80
2018-09-17T04:46:49.028Z,9.76
2018-09-17T04:47:49.199Z,9.87
2018-09-17T04:48:49.379Z,9.76
2018-09-17T04:49:49.555Z,9.73
2018-09-17T04:50:49.735Z,9.77
2018-09-17T04:51:49.933Z,9.77
2018-09-17T04:52:50.107Z,9.79
2018-09-17T04:53:50.281Z,9.77
2018-09-17T04:54:50.442Z,9.64
2018-09-17T04:55:50.622Z,9.79
2018-09-17T04:56:50.796Z,9.65
2018-09-17T04:57:50.972Z,9.68
2018-09-17T04:58:51.149Z,9.73
2018-09-17T04:59:51.328Z,9.56
2018-09-17T05:00:51.505Z,9.61
2018-09-17T05:01:51.689Z,9.56
2018-09-17T05:02:51.871Z,9.62
2018-09-17T05:03:52.037Z,9.58
2018-09-17T05:04:52.219Z,9.66
2018-09-17T05:05:52.392Z,9.65
2018-09-17T05:06:52.569Z,9.59
2018-09-17T05:07:52.765Z,9.65
2018-09-17T05:08:52.927Z,9.50
2018-09-17T05:09:53.108Z,9.55
2018-09-17T05:10:53.285Z,9.48
2018-09-17T05:11:53.448Z,9.62
2018-09-17T05:12:53.648Z,9.58
2018-09-17T05:13:53.801Z,9.65
2018-09-17T05:14:54.008Z,9.54
2018-09-17T05:15:54.155Z,9.50
2018-09-17T05:16:54.323Z,9.18
2018-09-17T05:17:54.499Z,9.25
2018-09-17T05:19:54.867Z,9.29
2018-09-17T05:20:55.031Z,9.32
2018-09-17T05:21:55.212Z,9.44
2018-09-17T05:22:55.373Z,9.55
2018-09-17T05:23:55.557Z,9.46
2018-09-17T05:24:55.748Z,9.54
2018-09-17T05:25:55.895Z,9.59
2018-09-17T05:26:56.101Z,9.72
2018-09-17T05:27:56.235Z,9.72
2018-09-17T05:28:56.417Z,9.77
2018-09-17T05:29:56.592Z,9.77
2018-09-17T05:30:56.760Z,9.82
2018-09-17T05:31:56.942Z,9.89
2018-09-17T05:32:57.117Z,9.94
2018-09-17T05:33:57.292Z,9.99
2018-09-17T05:34:57.545Z,9.94
2018-09-17T05:35:57.638Z,9.95
2018-09-17T05:36:57.862Z,9.92
2018-09-17T05:37:58.042Z,9.99
2018-09-17T05:38:58.209Z,9.98
2018-09-17T05:39:58.385Z,10.09
2018-09-17T05:40:58.580Z,10.12
2018-09-17T05:41:58.747Z,10.23
2018-09-17T05:42:58.911Z,10.23
2018-09-17T05:43:59.085Z,10.30
2018-09-17T05:44:59.265Z,10.23
2018-09-17T05:45:59.447Z,10.26
2018-09-17T05:46:59.630Z,10.44
2018-09-17T05:47:59.811Z,10.53
2018-09-17T05:48:59.981Z,10.60
2018-09-17T05:50:00.177Z,10.60
2018-09-17T05:51:00.343Z,10.59
2018-09-17T05:54:32.806Z,10.97
2018-09-17T05:55:32.986Z,11.43
2018-09-17T05:56:33.185Z,11.88
2018-09-17T05:57:34.272Z,12.25
2018-09-17T05:58:33.525Z,12.64
2018-09-17T05:59:33.740Z,13.16
2018-09-17T06:00:33.891Z,13.78
2018-09-17T06:01:34.069Z,14.32
2018-09-17T06:02:34.247Z,14.51
2018-09-17T06:03:34.413Z,15.00
2018-09-17T06:04:34.592Z,15.03
2018-09-17T06:05:34.839Z,15.39
2018-09-17T06:06:34.951Z,15.84
2018-09-17T06:07:35.151Z,16.02
2018-09-17T06:08:35.313Z,16.01
2018-09-17T06:09:35.519Z,16.13
2018-09-17T06:10:35.679Z,16.05
2018-09-17T06:11:35.862Z,16.33
2018-09-17T06:12:36.041Z,16.28
2018-09-17T06:13:36.221Z,16.24
2018-09-17T06:14:36.481Z,16.15
2018-09-17T06:15:36.588Z,16.35
2018-09-17T06:16:36.770Z,16.56
2018-09-17T06:17:36.952Z,16.58
2018-09-17T06:18:37.133Z,16.72
2018-09-17T06:19:37.344Z,16.71
2018-09-17T06:20:37.503Z,16.57
2018-09-17T06:21:37.704Z,16.64
2018-09-17T06:22:37.889Z,16.66
2018-09-17T06:23:38.075Z,16.83
2018-09-17T06:24:38.252Z,16.28
2018-09-17T06:25:38.447Z,16.83
2018-09-17T06:26:38.792Z,16.83
2018-09-17T06:27:38.802Z,16.78
2018-09-17T06:28:39.023Z,17.31
2018-09-17T06:29:39.190Z,17.27
2018-09-17T06:30:39.379Z,17.41
2018-09-17T06:31:39.559Z,17.49
2018-09-17T06:32:39.746Z,17.54
2018-09-17T06:33:39.929Z,17.98
2018-09-17T06:34:40.105Z,18.05
2018-09-17T06:35:40.287Z,18.04
2018-09-17T06:36:40.479Z,18.33
2018-09-17T06:37:40.788Z,18.38
2018-09-17T06:38:40.864Z,18.15
2018-09-17T06:39:41.049Z,18.22
2018-09-17T06:40:41.226Z,18.55
2018-09-17T06:41:41.481Z,18.43
2018-09-17T06:42:41.592Z,18.60
2018-09-17T06:43:41.781Z,19.04
2018-09-17T06:44:41.971Z,19.39
2018-09-17T06:45:42.157Z,18.70
2018-09-17T06:46:42.355Z,18.22
2018-09-17T06:47:42.638Z,18.44
2018-09-17T06:48:42.712Z,18.62
2018-09-17T06:49:42.976Z,18.78
2018-09-17T06:50:43.094Z,18.63
2018-09-17T06:51:43.272Z,18.73
2018-09-17T06:52:43.454Z,19.15
2018-09-17T06:53:43.658Z,19.02
2018-09-17T06:54:43.840Z,18.74
2018-09-17T06:55:44.031Z,19.02
2018-09-17T06:56:44.207Z,19.45
2018-09-17T06:57:44.415Z,19.45
2018-09-17T06:58:44.595Z,18.92
2018-09-17T06:59:44.795Z,18.96
2018-09-17T07:02:45.375Z,19.33
2018-09-17T07:03:45.492Z,19.37
2018-09-17T07:04:45.676Z,19.52
2018-09-17T07:05:45.884Z,19.37
2018-09-17T07:06:46.039Z,19.56
2018-09-17T07:07:46.221Z,19.67
2018-09-17T07:08:46.415Z,19.41
2018-09-17T07:09:46.586Z,19.76
2018-09-17T07:10:46.772Z,19.40
2018-09-17T07:11:46.956Z,19.07
2018-09-17T07:12:47.133Z,19.09
2018-09-17T07:13:47.334Z,19.07
2018-09-17T07:14:47.517Z,18.84
2018-09-17T07:15:47.696Z,19.02
2018-09-17T07:16:47.903Z,19.07
2018-09-17T07:17:48.084Z,19.27
2018-09-17T07:18:48.276Z,19.07
2018-09-17T07:19:48.475Z,19.07
2018-09-17T07:20:48.655Z,18.58
2018-09-17T07:21:48.842Z,18.62
2018-09-17T07:22:49.032Z,18.62
2018-09-17T07:23:49.217Z,18.81
2018-09-17T07:24:49.408Z,18.55
2018-09-17T07:25:49.596Z,18.58
2018-09-17T07:26:49.775Z,18.34
2018-09-17T07:27:49.957Z,18.31
2018-09-17T07:28:50.132Z,18.29
2018-09-17T07:29:50.338Z,18.50
2018-09-17T07:30:50.536Z,18.65
2018-09-17T07:31:50.720Z,18.70
2018-09-17T07:32:50.906Z,18.84
2018-09-17T07:33:51.091Z,18.81
2018-09-17T07:34:51.290Z,18.83
2018-09-17T07:35:51.464Z,18.60
2018-09-17T07:36:51.635Z,18.60
2018-09-17T07:37:51.842Z,18.71
2018-09-17T07:38:52.011Z,18.68
2018-09-17T07:39:52.215Z,18.74
2018-09-17T07:40:52.405Z,18.88
2018-09-17T07:41:52.584Z,18.95
2018-09-17T07:42:52.778Z,19.08
2018-09-17T07:43:52.950Z,19.16
2018-09-17T07:44:53.121Z,19.39
2018-09-17T07:45:53.327Z,19.21
2018-09-17T07:46:53.502Z,19.29
2018-09-17T07:47:53.736Z,18.95
2018-09-17T07:48:53.863Z,19.07
2018-09-17T07:49:54.045Z,19.16
2018-09-17T07:50:54.231Z,19.34
2018-09-17T07:51:54.409Z,19.15
2018-09-17T07:52:54.658Z,19.44
2018-09-17T07:53:54.801Z,19.59
2018-09-17T07:54:54.984Z,19.71
2018-09-17T07:55:55.163Z,19.71
2018-09-17T07:56:55.348Z,19.84
2018-09-17T07:57:55.525Z,19.89
2018-09-17T07:58:55.743Z,20.10
2018-09-17T07:59:55.904Z,20.14
2018-09-17T08:00:56.074Z,20.24
2018-09-17T08:01:56.265Z,20.24
2018-09-17T08:02:56.445Z,20.47
2018-09-17T08:03:56.627Z,20.50
2018-09-17T08:04:56.824Z,20.40
2018-09-17T08:05:57.035Z,20.51
2018-09-17T08:06:57.220Z,20.80
2018-09-17T08:07:57.404Z,20.88
2018-09-17T08:08:57.601Z,20.96
2018-09-17T08:09:57.790Z,21.06
2018-09-17T08:10:57.969Z,21.07
2018-09-17T08:11:58.145Z,21.09
2018-09-17T08:12:58.324Z,21.42
2018-09-17T08:13:58.512Z,21.37
2018-09-17T08:14:58.695Z,21.27
2018-09-17T08:15:58.890Z,21.48
2018-09-17T08:16:59.072Z,21.46
2018-09-17T08:17:59.247Z,21.50
2018-09-17T08:18:59.452Z,21.54
2018-09-17T08:19:59.664Z,21.55
2018-09-17T08:20:59.807Z,21.62
2018-09-17T08:21:59.995Z,21.92
2018-09-17T08:23:00.191Z,22.06
2018-09-17T08:24:00.374Z,21.91
2018-09-17T08:25:00.567Z,21.96
2018-09-17T08:26:00.762Z,21.51
2018-09-17T08:27:00.933Z,21.83
2018-09-17T08:28:01.128Z,21.66
2018-09-17T08:29:01.324Z,21.72
2018-09-17T08:30:01.507Z,21.82
2018-09-17T08:31:01.681Z,21.91
2018-09-17T08:32:01.870Z,21.69
2018-09-17T08:33:02.067Z,21.79
2018-09-17T08:34:02.261Z,21.98
2018-09-17T08:35:02.445Z,22.45
2018-09-17T08:36:02.642Z,22.41
2018-09-17T08:37:02.815Z,22.72
2018-09-17T08:38:03.035Z,22.55
2018-09-17T08:39:03.177Z,22.93
2018-09-17T08:40:03.365Z,22.63
2018-09-17T08:41:03.553Z,22.70
2018-09-17T08:42:03.761Z,23.03
2018-09-17T08:43:03.943Z,23.32
2018-09-17T08:44:04.128Z,23.78
2018-09-17T08:45:04.332Z,24.26
2018-09-17T08:46:04.513Z,24.35
2018-09-17T08:47:04.715Z,24.53
2018-09-17T08:48:04.902Z,24.38
2018-09-17T08:49:05.087Z,24.43
2018-09-17T08:50:05.265Z,24.35
2018-09-17T08:51:05.452Z,24.50
2018-09-17T08:52:05.699Z,24.32
2018-09-17T08:53:05.883Z,24.23
2018-09-17T08:54:06.035Z,24.32
2018-09-17T08:55:06.211Z,24.14
2018-09-17T08:56:06.399Z,24.40
2018-09-17T08:57:06.596Z,24.20
2018-09-17T08:58:06.824Z,24.10
2018-09-17T08:59:06.993Z,24.35
2018-09-17T09:00:07.167Z,23.63
2018-09-17T09:01:07.359Z,23.62
2018-09-17T09:02:07.558Z,23.84
2018-09-17T09:03:07.745Z,23.05
2018-09-17T09:04:07.903Z,23.73
2018-09-17T09:05:08.170Z,23.87
2018-09-17T09:06:08.306Z,24.14
2018-09-17T09:07:08.496Z,24.54
2018-09-17T09:08:08.685Z,24.28
2018-09-17T09:09:08.860Z,24.42
2018-09-17T09:10:09.042Z,24.63
2018-09-17T09:11:09.233Z,25.16
2018-09-17T09:12:09.424Z,25.69
2018-09-17T09:13:09.600Z,25.58
2018-09-17T09:14:09.784Z,25.87
2018-09-17T09:15:09.973Z,25.14
2018-09-17T09:16:10.166Z,25.48
2018-09-17T09:17:10.342Z,25.81
2018-09-17T09:18:10.532Z,25.36
2018-09-17T09:19:10.717Z,24.32
2018-09-17T09:20:10.903Z,23.58
2018-09-17T09:21:11.088Z,23.34
2018-09-17T09:22:11.272Z,23.68
2018-09-17T09:23:11.475Z,23.96
2018-09-17T09:24:11.659Z,24.33
2018-09-17T09:25:11.847Z,24.92
2018-09-17T09:26:12.063Z,24.55
2018-09-17T09:29:45.547Z,24.70
2018-09-17T09:30:45.764Z,25.29
2018-09-17T09:31:45.921Z,25.69
2018-09-17T09:32:46.114Z,25.13
2018-09-17T09:33:46.289Z,25.66
2018-09-17T09:34:46.488Z,26.05
2018-09-17T09:35:46.698Z,26.58
2018-09-17T09:36:46.880Z,26.96
2018-09-17T09:37:47.065Z,27.45
2018-09-17T09:38:47.247Z,27.21
2018-09-17T09:39:47.437Z,27.45
2018-09-17T09:40:47.615Z,28.04
2018-09-17T09:41:47.807Z,28.38
2018-09-17T09:42:47.990Z,28.33
2018-09-17T09:43:48.176Z,28.41
2018-09-17T09:44:48.365Z,28.67
2018-09-17T09:45:48.550Z,28.86
2018-09-17T09:46:48.735Z,28.69
2018-09-17T09:47:48.935Z,28.47
2018-09-17T09:48:49.111Z,28.70
2018-09-17T09:49:49.300Z,29.07
2018-09-17T09:50:51.551Z,29.04
2018-09-17T09:51:49.752Z,27.11
2018-09-17T09:52:49.969Z,27.68
2018-09-17T09:53:50.185Z,27.47
2018-09-17T09:54:50.311Z,26.80
2018-09-17T09:55:50.500Z,27.58
2018-09-17T09:56:50.688Z,28.02
2018-09-17T09:57:50.876Z,28.33
2018-09-17T09:58:51.068Z,28.22
2018-09-17T09:59:51.268Z,28.32
2018-09-17T10:00:51.454Z,28.78
2018-09-17T10:01:51.642Z,28.97
2018-09-17T10:02:51.830Z,29.34
2018-09-17T10:03:52.025Z,29.78
2018-09-17T10:04:52.209Z,29.82
2018-09-17T10:05:52.396Z,29.94
2018-09-17T10:06:52.582Z,30.30
2018-09-17T10:07:52.782Z,30.40
2018-09-17T10:08:52.968Z,30.70
2018-09-17T10:10:53.336Z,30.81
2018-09-17T10:11:53.527Z,30.59
2018-09-17T10:12:53.724Z,30.90
2018-09-17T10:13:53.898Z,30.61
2018-09-17T10:14:54.097Z,31.00
2018-09-17T10:15:54.272Z,31.40
2018-09-17T10:16:54.475Z,30.87
2018-09-17T10:17:54.695Z,31.36
2018-09-17T10:18:54.857Z,31.37
2018-09-17T10:19:55.038Z,31.64
2018-09-17T10:20:55.211Z,31.61
2018-09-17T10:21:55.526Z,32.09
2018-09-17T10:22:55.660Z,31.92
2018-09-17T10:23:55.863Z,31.85
2018-09-17T10:24:55.986Z,31.17
2018-09-17T10:25:56.166Z,31.49
2018-09-17T10:26:56.340Z,31.77
2018-09-17T10:27:56.539Z,32.08
2018-09-17T10:28:56.709Z,32.49
2018-09-17T10:29:56.907Z,32.21
2018-09-17T10:30:57.091Z,32.29
2018-09-17T10:31:57.285Z,32.23
2018-09-17T10:32:57.465Z,32.27
2018-09-17T10:33:57.638Z,32.21
2018-09-17T10:34:57.829Z,32.18
2018-09-17T10:35:58.018Z,31.52
2018-09-17T10:36:58.169Z,29.72
2018-09-17T10:37:58.353Z,30.44
2018-09-17T10:38:58.528Z,30.35
2018-09-17T10:39:58.720Z,29.97
2018-09-17T10:40:58.884Z,29.87
2018-09-17T10:41:59.058Z,28.45
2018-09-17T10:42:59.237Z,29.20
2018-09-17T10:43:59.417Z,27.21
2018-09-17T10:44:59.599Z,27.67
2018-09-17T10:45:59.781Z,27.67
2018-09-17T10:47:00.028Z,27.27
2018-09-17T10:48:00.143Z,28.29
2018-09-17T10:49:00.319Z,28.86
2018-09-17T10:50:00.498Z,29.56
2018-09-17T10:51:00.684Z,29.84
2018-09-17T10:52:00.870Z,29.93
2018-09-17T10:53:01.071Z,30.08
2018-09-17T10:54:01.239Z,29.73
2018-09-17T10:55:01.433Z,29.86
2018-09-17T10:56:01.640Z,29.23
2018-09-17T10:57:01.867Z,29.29
2018-09-17T10:58:02.076Z,29.82
2018-09-17T10:59:02.238Z,30.43
2018-09-17T11:00:02.438Z,31.00
2018-09-17T11:01:02.648Z,31.52
2018-09-17T11:02:02.818Z,31.62
2018-09-17T11:03:02.995Z,31.44
2018-09-17T11:04:03.182Z,31.61
2018-09-17T11:05:03.372Z,31.64
2018-09-17T11:06:03.544Z,31.85
2018-09-17T11:07:03.732Z,31.00
2018-09-17T11:08:03.918Z,30.85
2018-09-17T11:09:04.071Z,30.55
2018-09-17T11:10:04.253Z,29.97
2018-09-17T11:11:04.427Z,29.78
2018-09-17T11:12:04.608Z,29.94
2018-09-17T11:13:04.792Z,29.88
2018-09-17T11:14:04.975Z,29.50
2018-09-17T11:15:05.164Z,29.39
2018-09-17T11:16:05.330Z,29.29
2018-09-17T11:17:05.489Z,29.41
2018-09-17T11:18:05.674Z,29.47
2018-09-17T11:19:05.862Z,29.45
2018-09-17T11:20:06.023Z,29.49
2018-09-17T11:21:06.206Z,29.32
2018-09-17T11:22:06.394Z,29.32
2018-09-17T11:23:06.577Z,29.29
2018-09-17T11:24:06.756Z,29.29
2018-09-17T11:25:06.943Z,29.32
2018-09-17T11:26:07.127Z,29.19
2018-09-17T11:27:07.315Z,29.34
2018-09-17T11:28:07.496Z,29.31
2018-09-17T11:29:07.662Z,29.19
2018-09-17T11:30:07.845Z,29.23
2018-09-17T11:31:08.016Z,29.07
2018-09-17T11:32:08.210Z,29.04
2018-09-17T11:33:08.366Z,29.02
2018-09-17T11:34:08.541Z,28.44
2018-09-17T11:35:08.724Z,28.45
2018-09-17T11:36:08.949Z,28.52
2018-09-17T11:37:09.111Z,28.60
2018-09-17T11:38:09.288Z,27.92
2018-09-17T11:39:09.483Z,28.05
2018-09-17T11:40:09.657Z,28.17
2018-09-17T11:41:09.873Z,28.26
2018-09-17T11:42:09.966Z,28.33
2018-09-17T11:43:10.144Z,28.25
2018-09-17T11:44:10.348Z,28.27
2018-09-17T11:45:10.534Z,28.47
2018-09-17T11:46:10.717Z,28.49
2018-09-17T11:47:10.878Z,28.52
2018-09-17T11:48:11.091Z,28.44
2018-09-17T11:49:11.252Z,28.49
2018-09-17T11:50:11.487Z,28.62
2018-09-17T11:51:11.612Z,28.69
2018-09-17T11:52:11.786Z,28.27
2018-09-17T11:53:11.976Z,28.44
2018-09-17T11:54:12.134Z,28.63
2018-09-17T11:55:12.336Z,28.76
2018-09-17T11:56:12.519Z,28.56
2018-09-17T11:57:12.691Z,28.75
2018-09-17T11:58:12.865Z,28.70
2018-09-17T11:59:13.043Z,28.74
2018-09-17T12:00:13.224Z,28.85
2018-09-17T12:01:13.420Z,28.70
2018-09-17T12:02:13.667Z,28.63
2018-09-17T12:03:13.791Z,28.75
2018-09-17T12:04:13.980Z,28.41
2018-09-17T12:05:14.178Z,28.37
2018-09-17T12:06:14.314Z,28.04
2018-09-17T12:07:14.538Z,28.27
2018-09-17T12:08:14.710Z,28.29
2018-09-17T12:09:14.942Z,28.38
2018-09-17T12:10:15.085Z,28.42
2018-09-17T12:11:15.415Z,28.54
2018-09-17T12:12:15.489Z,28.70
2018-09-17T12:13:15.658Z,28.20
2018-09-17T12:15:16.028Z,28.29
2018-09-17T12:16:16.187Z,28.47
2018-09-17T12:17:16.371Z,28.60
2018-09-17T12:18:16.537Z,28.49
2018-09-17T12:19:16.721Z,28.49
2018-09-17T12:20:16.885Z,28.63
2018-09-17T12:21:17.071Z,28.79
2018-09-17T12:22:17.275Z,28.96
2018-09-17T12:23:17.462Z,28.78
2018-09-17T12:24:17.660Z,28.76
2018-09-17T12:25:17.783Z,28.93
2018-09-17T12:26:17.966Z,29.02
2018-09-17T12:27:18.158Z,29.20
2018-09-17T12:28:18.334Z,29.19
2018-09-17T12:29:18.531Z,29.16
2018-09-17T12:30:18.700Z,29.16
2018-09-17T12:31:18.891Z,29.23
2018-09-17T12:32:19.043Z,29.32
2018-09-17T12:33:19.212Z,29.39
2018-09-17T12:34:19.390Z,29.35
2018-09-17T12:35:19.563Z,29.20
2018-09-17T12:36:19.754Z,28.98
2018-09-17T12:37:19.934Z,28.57
2018-09-17T12:38:20.126Z,28.35
2018-09-17T12:39:20.331Z,28.33
2018-09-17T12:40:20.516Z,28.42
2018-09-17T12:41:20.684Z,28.25
2018-09-17T12:42:20.847Z,28.22
2018-09-17T12:43:21.046Z,28.44
2018-09-17T12:44:21.210Z,28.51
2018-09-17T12:45:21.399Z,28.48
2018-09-17T12:46:21.585Z,28.63
2018-09-17T12:47:21.775Z,28.64
2018-09-17T12:48:21.958Z,28.75
2018-09-17T12:49:22.143Z,28.76
2018-09-17T12:50:22.330Z,28.91
2018-09-17T12:51:22.505Z,28.51
2018-09-17T12:52:22.687Z,28.64
2018-09-17T12:53:22.875Z,28.37
2018-09-17T12:54:23.060Z,28.56
2018-09-17T12:55:23.252Z,28.20
2018-09-17T12:56:23.430Z,28.39
2018-09-17T12:57:23.693Z,28.41
2018-09-17T12:58:23.797Z,28.54
2018-09-17T12:59:23.973Z,28.41
2018-09-17T13:00:24.154Z,28.32
2018-09-17T13:01:24.354Z,28.26
2018-09-17T13:02:24.516Z,28.39
2018-09-17T13:03:24.759Z,28.41
2018-09-17T13:04:24.875Z,28.49
2018-09-17T13:05:25.030Z,28.69
2018-09-17T13:06:25.196Z,28.56
2018-09-17T13:07:25.377Z,28.52
2018-09-17T13:08:25.563Z,28.52
2018-09-17T13:09:25.728Z,28.27
2018-09-17T13:10:25.895Z,28.30
2018-09-17T13:11:26.066Z,28.47